首页
METAR-TAF:

METAR-TAF

机场 :

Salluit, 魁北克, 加拿大

纬度: 62-11N, 经度: 075-40W, 海拔: 226米

当前天气观测

该预报发布于2小时和12分钟前的21:00 UTC
风速20节,风向南转西南
温度 -16°C
湿度 78%
气压 1005 hPa
能見度: 8.0公里
阴天层高于1800英尺
小雪, 高吹雪

METAR: CYZG 262100Z 21020KT 5SM -SN BLSN OVC018 M16/M19 A2969 RMK SC8 SNW CVR/ONELOOSE/LAST STFD OBS/NEXT271200 UTC SLP086

时间: 19:12 (23:12 UTC)

预报

该预报发布于9小时和34分钟前的13:38 UTC
预报有效从26日的 14点(UTC)到 26日的 21点(UTC)
风速5节,风向西南
能見度: 10公里
散云层高于8000英尺
多云层高于12000英尺
成为
从 26日的 16点(UTC)到 26日的 18点(UTC)
风速12节,风向西南
从 26日的 1800点(UTC)
风速12节,风向西南
能見度: 10公里
少量云层高于2000英尺
多云层高于4000英尺
短暂存在
从 26日的 18点(UTC)到 26日的 21点(UTC)
能見度: 8.0公里
多云层高于2000英尺
小雪, 轻雾

TAF: CYZG 261338Z 2614/2621 23005KT P6SM SCT080 BKN120 BECMG 2616/2618 22012KT FM261800 22012KT P6SM FEW020 BKN040 TEMPO 2618/2621 5SM -SN BR BKN020 RMK NXT FCST WILL BE ISSUED AT 271345Z

超过4000个机场的气象观测和天气预报(METAR&TAF报告)。

可查询的气象台以黄色和红色小点在地图上表示。

将鼠标移到小点上方,可查看气象台名称。

然后点击查看天气观测和预报。

如需切换地图:点击带黑十字的绿色按钮放大地图;点击带横线的绿色按钮缩小地图;或者点击绿色箭头查看邻近地区的地图。


METAR-TAF: